createdAt,value
2022-11-02T00:00:48.067Z,49.10
2022-11-02T00:03:14.700Z,48.97
2022-11-02T00:05:41.558Z,49.08
2022-11-02T00:08:08.142Z,48.97
2022-11-02T00:10:34.962Z,48.81
2022-11-02T00:13:01.814Z,48.81
2022-11-02T00:15:31.251Z,48.83
2022-11-02T00:20:41.623Z,48.69
2022-11-02T00:23:10.826Z,48.70
2022-11-02T00:25:44.075Z,48.62
2022-11-02T00:28:11.071Z,48.62
2022-11-02T00:30:38.060Z,48.43
2022-11-02T00:35:31.461Z,48.45
2022-11-02T00:37:58.547Z,48.45
2022-11-02T00:40:25.062Z,48.24
2022-11-02T00:42:51.689Z,48.17
2022-11-02T00:45:18.476Z,48.34
2022-11-02T00:47:46.291Z,48.19
2022-11-02T00:50:13.235Z,48.21
2022-11-02T00:52:40.942Z,48.16
2022-11-02T00:55:09.112Z,48.07
2022-11-02T00:57:38.612Z,48.03
2022-11-02T01:00:09.930Z,48.07
2022-11-02T01:02:37.591Z,48.05
2022-11-02T01:07:17.035Z,48.03
2022-11-02T01:09:43.645Z,47.96
2022-11-02T01:12:11.070Z,47.84
2022-11-02T01:14:37.774Z,47.83
2022-11-02T01:17:04.777Z,47.87
2022-11-02T01:21:55.603Z,47.74
2022-11-02T01:24:22.891Z,47.78
2022-11-02T01:26:52.975Z,47.69
2022-11-02T01:29:19.727Z,47.68
2022-11-02T01:31:46.510Z,47.51
2022-11-02T01:34:13.021Z,47.51
2022-11-02T01:36:39.666Z,47.56
2022-11-02T01:39:07.075Z,47.49
2022-11-02T01:41:33.657Z,47.45
2022-11-02T01:44:02.951Z,47.33
2022-11-02T01:46:38.659Z,47.53
2022-11-02T01:49:10.118Z,47.24
2022-11-02T01:51:42.159Z,47.35
2022-11-02T01:54:16.950Z,47.35
2022-11-02T01:56:48.732Z,47.27
2022-11-02T01:59:21.089Z,47.37
2022-11-02T02:01:48.912Z,47.31
2022-11-02T02:04:15.944Z,47.25
2022-11-02T02:06:44.016Z,47.17
2022-11-02T02:09:10.890Z,47.18
2022-11-02T02:11:39.671Z,47.18
2022-11-02T02:14:11.932Z,47.40
2022-11-02T02:17:26.594Z,47.21
2022-11-02T02:20:07.762Z,47.27
2022-11-02T02:22:43.676Z,47.11
2022-11-02T02:25:29.219Z,47.06
2022-11-02T02:28:15.731Z,47.24
2022-11-02T02:31:00.441Z,47.09
2022-11-02T02:33:29.862Z,47.07
2022-11-02T02:36:01.225Z,46.91
2022-11-02T02:38:34.545Z,47.14
2022-11-02T02:41:07.420Z,47.23
2022-11-02T02:43:42.657Z,47.23
2022-11-02T02:46:34.609Z,47.07
2022-11-02T02:49:01.754Z,46.97
2022-11-02T02:51:32.384Z,47.12
2022-11-02T02:54:22.654Z,46.99
2022-11-02T02:56:55.949Z,47.01
2022-11-02T02:59:27.999Z,47.12
2022-11-02T03:01:57.152Z,47.04
2022-11-02T03:04:25.031Z,46.98
2022-11-02T03:06:58.439Z,47.01
2022-11-02T03:09:32.139Z,47.06
2022-11-02T03:12:22.929Z,46.90
2022-11-02T03:14:55.531Z,47.09
2022-11-02T03:17:32.864Z,46.92
2022-11-02T03:20:25.674Z,46.84
2022-11-02T03:22:59.126Z,46.94
2022-11-02T03:25:38.255Z,46.76
2022-11-02T03:28:18.967Z,46.98
2022-11-02T03:30:53.323Z,46.81
2022-11-02T03:33:36.780Z,46.83
2022-11-02T03:36:16.247Z,46.84
2022-11-02T03:38:56.091Z,46.74
2022-11-02T03:41:25.958Z,46.78
2022-11-02T03:43:59.636Z,46.85
2022-11-02T03:48:56.078Z,46.71
2022-11-02T03:51:24.821Z,46.67
2022-11-02T03:53:56.699Z,46.67
2022-11-02T03:56:29.658Z,46.61
2022-11-02T03:58:57.049Z,46.52
2022-11-02T04:01:27.260Z,46.67
2022-11-02T04:03:55.462Z,46.57
2022-11-02T04:06:23.423Z,46.85
2022-11-02T04:08:50.063Z,47.12
2022-11-02T04:11:38.177Z,47.19
2022-11-02T04:14:27.871Z,47.51
2022-11-02T04:17:15.691Z,47.55
2022-11-02T04:19:49.755Z,47.47
2022-11-02T04:22:37.020Z,47.35
2022-11-02T04:25:20.683Z,47.35
2022-11-02T04:28:09.493Z,47.55
2022-11-02T04:30:42.789Z,47.40
2022-11-02T04:33:27.923Z,47.54
2022-11-02T04:36:06.917Z,47.75
2022-11-02T04:38:40.441Z,47.95
2022-11-02T04:41:35.273Z,48.40
2022-11-02T04:44:04.571Z,48.43
2022-11-02T04:46:34.382Z,48.51
2022-11-02T04:49:03.371Z,48.44
2022-11-02T04:51:31.635Z,48.64
2022-11-02T04:53:58.812Z,48.62
2022-11-02T04:56:26.638Z,48.50
2022-11-02T04:58:59.825Z,48.24
2022-11-02T05:01:29.933Z,48.51
2022-11-02T05:03:58.866Z,48.35
2022-11-02T05:06:27.373Z,48.49
2022-11-02T05:08:55.506Z,48.60
2022-11-02T05:11:23.436Z,48.78
2022-11-02T05:13:51.135Z,48.97
2022-11-02T05:16:18.717Z,49.00
2022-11-02T05:18:46.218Z,49.08
2022-11-02T05:21:15.450Z,49.03
2022-11-02T05:26:12.241Z,49.12
2022-11-02T05:28:42.645Z,49.19
2022-11-02T05:33:31.281Z,49.29
2022-11-02T05:36:00.772Z,49.13
2022-11-02T05:38:29.375Z,49.37
2022-11-02T05:40:59.975Z,49.29
2022-11-02T05:43:30.244Z,49.37
2022-11-02T05:46:01.699Z,49.23
2022-11-02T05:48:31.776Z,49.32
2022-11-02T05:51:00.304Z,49.27
2022-11-02T05:53:27.926Z,49.16
2022-11-02T05:55:58.777Z,49.19
2022-11-02T05:58:28.086Z,49.04
2022-11-02T06:00:54.759Z,49.14
2022-11-02T06:03:21.468Z,49.13
2022-11-02T06:05:48.101Z,48.97
2022-11-02T06:08:14.724Z,49.04
2022-11-02T06:10:43.261Z,48.89
2022-11-02T06:13:10.093Z,48.99
2022-11-02T06:15:36.847Z,48.86
2022-11-02T06:18:03.578Z,48.89
2022-11-02T06:20:30.066Z,48.75
2022-11-02T06:22:56.705Z,48.79
2022-11-02T06:25:23.332Z,48.82
2022-11-02T06:27:56.433Z,48.83
2022-11-02T06:30:26.847Z,48.72
2022-11-02T06:32:54.559Z,48.65
2022-11-02T06:35:22.968Z,48.66
2022-11-02T06:37:49.640Z,48.67
2022-11-02T06:40:17.707Z,48.25
2022-11-02T06:43:03.167Z,48.47
2022-11-02T06:45:33.341Z,48.45
2022-11-02T06:47:59.855Z,48.42
2022-11-02T06:50:26.454Z,48.44
2022-11-02T06:52:53.231Z,48.33
2022-11-02T06:55:19.813Z,48.37
2022-11-02T06:57:46.330Z,48.30
2022-11-02T07:00:20.944Z,48.30
2022-11-02T07:03:01.101Z,48.18
2022-11-02T07:05:28.504Z,48.17
2022-11-02T07:07:55.430Z,48.09
2022-11-02T07:10:22.708Z,48.36
2022-11-02T07:12:52.965Z,48.05
2022-11-02T07:15:20.942Z,48.04
2022-11-02T07:20:11.161Z,48.04
2022-11-02T07:22:37.821Z,47.96
2022-11-02T07:25:04.908Z,48.20
2022-11-02T07:27:31.474Z,47.89
2022-11-02T07:29:58.294Z,47.86
2022-11-02T07:32:25.708Z,48.19
2022-11-02T07:34:52.251Z,47.99
2022-11-02T07:37:18.854Z,47.76
2022-11-02T07:39:45.505Z,47.89
2022-11-02T07:42:12.311Z,47.74
2022-11-02T07:44:42.497Z,47.86
2022-11-02T07:47:09.060Z,47.76
2022-11-02T07:49:36.448Z,47.98
2022-11-02T07:52:03.155Z,47.96
2022-11-02T07:54:29.646Z,48.03
2022-11-02T07:56:56.214Z,48.22
2022-11-02T07:59:22.792Z,48.06
2022-11-02T08:01:49.378Z,48.37
2022-11-02T08:04:16.016Z,48.68
2022-11-02T08:06:42.708Z,48.89
2022-11-02T08:09:09.316Z,49.26
2022-11-02T08:11:36.042Z,49.55
2022-11-02T08:14:02.747Z,50.04
2022-11-02T08:16:30.622Z,50.25
2022-11-02T08:18:59.520Z,50.35
2022-11-02T08:23:58.487Z,50.68
2022-11-02T08:26:25.412Z,50.70
2022-11-02T08:28:52.390Z,50.78
2022-11-02T08:31:19.212Z,50.99
2022-11-02T08:33:47.272Z,51.15
2022-11-02T08:40:55.122Z,51.25
2022-11-02T08:43:21.891Z,51.38
2022-11-02T08:46:17.696Z,50.97
2022-11-02T08:48:36.085Z,51.17
2022-11-02T08:51:03.177Z,51.46
2022-11-02T08:53:29.737Z,51.59
2022-11-02T08:55:59.430Z,51.46
2022-11-02T08:58:26.630Z,51.45
2022-11-02T09:00:54.161Z,51.49
2022-11-02T09:03:26.527Z,51.55
2022-11-02T09:06:01.923Z,51.56
2022-11-02T09:08:29.352Z,51.49
2022-11-02T09:11:00.183Z,51.63
2022-11-02T09:13:27.964Z,51.57
2022-11-02T09:15:56.658Z,51.38
2022-11-02T09:18:23.928Z,50.59
2022-11-02T09:20:51.469Z,49.78
2022-11-02T09:23:20.400Z,48.89
2022-11-02T09:25:47.443Z,48.61
2022-11-02T09:28:15.678Z,48.47
2022-11-02T09:30:42.805Z,48.32
2022-11-02T09:33:09.968Z,48.34
2022-11-02T09:40:46.791Z,48.01
2022-11-02T09:43:45.851Z,48.04
2022-11-02T09:48:44.199Z,47.88
2022-11-02T09:51:15.287Z,47.79
2022-11-02T09:53:55.674Z,47.80
2022-11-02T09:56:22.617Z,47.73
2022-11-02T09:59:02.578Z,47.69
2022-11-02T10:02:02.890Z,47.72
2022-11-02T10:04:38.510Z,47.81
2022-11-02T10:07:39.273Z,47.66
2022-11-02T10:10:15.324Z,47.81
2022-11-02T10:12:58.972Z,47.80
2022-11-02T10:15:36.660Z,47.72
2022-11-02T10:18:05.163Z,47.76
2022-11-02T10:20:40.157Z,47.50
2022-11-02T10:23:09.033Z,47.54
2022-11-02T10:25:36.530Z,47.84
2022-11-02T10:28:15.613Z,47.93
2022-11-02T10:30:44.798Z,48.01
2022-11-02T10:33:15.277Z,48.00
2022-11-02T10:36:19.829Z,47.99
2022-11-02T10:38:49.494Z,48.30
2022-11-02T10:41:28.193Z,48.46
2022-11-02T10:44:12.382Z,48.51
2022-11-02T10:46:39.001Z,48.67
2022-11-02T10:49:33.865Z,48.95
2022-11-02T10:52:00.515Z,48.82
2022-11-02T10:54:33.415Z,48.87
2022-11-02T10:57:11.800Z,48.66
2022-11-02T10:59:38.662Z,48.91
2022-11-02T11:02:15.159Z,48.92
2022-11-02T11:04:42.627Z,48.91
2022-11-02T11:09:51.167Z,49.10
2022-11-02T11:12:26.201Z,49.06
2022-11-02T11:20:24.999Z,49.21
2022-11-02T11:23:21.731Z,49.22
2022-11-02T11:25:55.876Z,49.55
2022-11-02T11:28:25.959Z,49.54
2022-11-02T11:31:10.533Z,49.52
2022-11-02T11:33:49.119Z,49.62
2022-11-02T11:36:33.412Z,49.73
2022-11-02T11:39:02.247Z,49.42
2022-11-02T11:41:31.580Z,49.59
2022-11-02T11:43:58.780Z,49.85
2022-11-02T11:46:40.174Z,49.88
2022-11-02T11:49:19.540Z,49.65
2022-11-02T11:51:50.948Z,49.73
2022-11-02T11:54:31.944Z,50.10
2022-11-02T11:56:59.622Z,49.98
2022-11-02T11:59:44.409Z,50.12
2022-11-02T12:02:25.112Z,49.87
2022-11-02T12:04:58.844Z,50.27
2022-11-02T12:08:03.152Z,50.27
2022-11-02T12:10:48.410Z,50.18
2022-11-02T12:13:30.656Z,49.99
2022-11-02T12:16:09.364Z,50.00
2022-11-02T12:18:47.952Z,50.29
2022-11-02T12:21:41.179Z,50.34
2022-11-02T12:24:36.934Z,50.27
2022-11-02T12:27:24.079Z,50.00
2022-11-02T12:30:02.766Z,50.02
2022-11-02T12:32:55.463Z,49.80
2022-11-02T12:35:57.588Z,49.79
2022-11-02T12:38:26.724Z,50.00
2022-11-02T12:41:04.791Z,49.60
2022-11-02T12:43:45.418Z,48.28
2022-11-02T12:46:44.613Z,47.53
2022-11-02T12:49:43.029Z,47.45
2022-11-02T12:52:23.862Z,47.19
2022-11-02T12:54:54.734Z,47.22
2022-11-02T12:57:28.452Z,46.98
2022-11-02T13:00:02.858Z,47.08
2022-11-02T13:02:36.651Z,47.03
2022-11-02T13:05:09.125Z,46.86
2022-11-02T13:07:44.540Z,47.11
2022-11-02T13:10:24.309Z,46.99
2022-11-02T13:12:55.895Z,47.05
2022-11-02T13:15:26.169Z,46.93
2022-11-02T13:17:58.924Z,46.75
2022-11-02T13:20:29.858Z,46.83
2022-11-02T13:23:11.418Z,46.60
2022-11-02T13:25:44.356Z,46.73
2022-11-02T13:28:23.070Z,46.71
2022-11-02T13:30:51.455Z,46.68
2022-11-02T13:33:29.798Z,46.55
2022-11-02T13:35:56.453Z,46.51
2022-11-02T13:38:32.012Z,46.47
2022-11-02T13:41:17.392Z,46.40
2022-11-02T13:44:23.065Z,46.74
2022-11-02T13:46:58.794Z,46.51
2022-11-02T13:49:41.883Z,46.65
2022-11-02T13:52:15.295Z,46.49
2022-11-02T13:54:51.162Z,46.67
2022-11-02T13:57:36.402Z,46.40
2022-11-02T14:00:08.018Z,46.40
2022-11-02T14:02:42.322Z,46.28
2022-11-02T14:05:09.113Z,46.47
2022-11-02T14:07:41.383Z,46.14
2022-11-02T14:10:18.875Z,46.41
2022-11-02T14:12:49.733Z,46.39
2022-11-02T14:15:16.250Z,46.26
2022-11-02T14:17:55.186Z,46.46
2022-11-02T14:20:37.033Z,46.48
2022-11-02T14:23:09.430Z,46.34
2022-11-02T14:25:45.357Z,46.47
2022-11-02T14:28:29.168Z,46.48
2022-11-02T14:31:05.041Z,46.46
2022-11-02T14:33:31.655Z,46.53
2022-11-02T14:36:09.439Z,46.53
2022-11-02T14:39:00.987Z,46.79
2022-11-02T14:41:42.669Z,46.85
2022-11-02T14:44:30.453Z,47.05
2022-11-02T14:47:06.211Z,47.08
2022-11-02T14:49:38.107Z,47.34
2022-11-02T14:52:13.837Z,47.46
2022-11-02T14:55:06.692Z,47.77
2022-11-02T14:57:41.072Z,47.98
2022-11-02T15:00:30.420Z,47.99
2022-11-02T15:05:37.327Z,48.26
2022-11-02T15:08:16.449Z,48.55
2022-11-02T15:10:45.398Z,48.56
2022-11-02T15:13:21.458Z,48.69
2022-11-02T15:15:50.899Z,48.53
2022-11-02T15:18:29.768Z,48.56
2022-11-02T15:21:11.593Z,48.98
2022-11-02T15:24:05.800Z,49.02
2022-11-02T15:26:49.014Z,49.17
2022-11-02T15:31:29.358Z,49.39
2022-11-02T15:33:59.022Z,49.68
2022-11-02T15:36:38.729Z,49.67
2022-11-02T15:39:14.928Z,49.77
2022-11-02T15:41:48.662Z,49.81
2022-11-02T15:44:21.270Z,49.79
2022-11-02T15:47:12.617Z,50.02
2022-11-02T15:50:01.101Z,49.95
2022-11-02T15:53:08.621Z,50.17
2022-11-02T15:55:59.795Z,50.05
2022-11-02T15:58:59.074Z,50.17
2022-11-02T16:01:28.357Z,49.08
2022-11-02T16:04:05.827Z,49.00
2022-11-02T16:06:38.079Z,48.84
2022-11-02T16:09:31.501Z,48.61
2022-11-02T16:12:21.702Z,48.58
2022-11-02T16:15:04.383Z,48.54
2022-11-02T16:17:32.038Z,48.51
2022-11-02T16:20:29.189Z,46.79
2022-11-02T16:23:04.179Z,45.37
2022-11-02T16:25:46.485Z,44.37
2022-11-02T16:28:29.170Z,43.96
2022-11-02T16:31:18.860Z,44.35
2022-11-02T16:33:54.694Z,45.11
2022-11-02T16:36:25.524Z,45.28
2022-11-02T16:38:59.672Z,45.42
2022-11-02T16:41:31.916Z,45.73
2022-11-02T16:44:10.450Z,45.83
2022-11-02T16:46:47.300Z,46.03
2022-11-02T16:49:18.668Z,46.20
2022-11-02T16:51:52.238Z,46.46
2022-11-02T16:54:29.873Z,46.78
2022-11-02T16:57:10.218Z,46.96
2022-11-02T16:59:56.323Z,47.41
2022-11-02T17:02:38.659Z,47.55
2022-11-02T17:05:26.252Z,48.03
2022-11-02T17:08:09.078Z,48.43
2022-11-02T17:10:38.125Z,48.67
2022-11-02T17:13:09.118Z,48.95
2022-11-02T17:15:37.418Z,49.66
2022-11-02T17:18:09.819Z,50.13
2022-11-02T17:20:38.371Z,50.48
2022-11-02T17:23:07.534Z,50.88
2022-11-02T17:25:35.118Z,51.06
2022-11-02T17:28:04.831Z,50.91
2022-11-02T17:30:34.565Z,50.73
2022-11-02T17:33:08.734Z,49.17
2022-11-02T17:35:36.048Z,47.39
2022-11-02T17:38:03.479Z,46.13
2022-11-02T17:40:30.372Z,45.04
2022-11-02T17:42:59.827Z,44.50
2022-11-02T17:47:45.812Z,42.89
2022-11-02T17:50:12.640Z,42.33
2022-11-02T17:52:40.417Z,41.90
2022-11-02T17:55:12.982Z,41.60
2022-11-02T17:57:39.509Z,41.29
2022-11-02T18:00:06.999Z,40.85
2022-11-02T18:02:39.136Z,40.51
2022-11-02T18:05:18.534Z,40.31
2022-11-02T18:07:46.913Z,40.27
2022-11-02T18:10:13.463Z,39.96
2022-11-02T18:12:40.095Z,39.79
2022-11-02T18:15:07.279Z,39.63
2022-11-02T18:17:35.012Z,39.65
2022-11-02T18:20:01.710Z,39.54
2022-11-02T18:22:28.261Z,39.50
2022-11-02T18:24:54.744Z,39.35
2022-11-02T18:27:23.676Z,39.14
2022-11-02T18:29:51.568Z,39.29
2022-11-02T18:32:19.154Z,39.24
2022-11-02T18:37:04.816Z,39.08
2022-11-02T18:39:31.363Z,39.11
2022-11-02T18:41:57.899Z,38.93
2022-11-02T18:44:24.581Z,38.86
2022-11-02T18:46:51.123Z,38.93
2022-11-02T18:49:17.760Z,38.85
2022-11-02T18:51:45.745Z,38.88
2022-11-02T18:54:13.029Z,38.77
2022-11-02T18:56:39.611Z,38.75
2022-11-02T18:59:06.310Z,38.61
2022-11-02T19:03:58.709Z,38.58
2022-11-02T19:06:45.736Z,38.49
2022-11-02T19:09:23.404Z,38.34
2022-11-02T19:12:15.036Z,38.59
2022-11-02T19:14:44.178Z,38.58
2022-11-02T19:17:12.277Z,38.48
2022-11-02T19:19:43.282Z,38.71
2022-11-02T19:22:13.307Z,38.38
2022-11-02T19:24:40.015Z,38.39
2022-11-02T19:27:09.333Z,38.29
2022-11-02T19:29:35.929Z,38.30
2022-11-02T19:32:02.561Z,38.28
2022-11-02T19:34:29.294Z,38.26
2022-11-02T19:36:56.030Z,38.12
2022-11-02T19:39:22.631Z,37.95
2022-11-02T19:41:52.312Z,38.01
2022-11-02T19:44:19.256Z,37.91
2022-11-02T19:46:45.803Z,37.94
2022-11-02T19:49:12.479Z,38.08
2022-11-02T19:51:39.124Z,38.21
2022-11-02T19:54:06.056Z,38.03
2022-11-02T19:56:34.915Z,37.89
2022-11-02T19:59:01.828Z,37.89
2022-11-02T20:01:30.945Z,37.91
2022-11-02T20:03:58.435Z,37.85
2022-11-02T20:06:32.342Z,37.94
2022-11-02T20:08:59.478Z,37.78
2022-11-02T20:13:53.755Z,37.95
2022-11-02T20:16:20.651Z,37.90
2022-11-02T20:18:49.613Z,37.90
2022-11-02T20:21:26.855Z,37.93
2022-11-02T20:23:57.454Z,37.79
2022-11-02T20:26:32.541Z,37.99
2022-11-02T20:29:00.561Z,37.96
2022-11-02T20:31:36.590Z,37.79
2022-11-02T20:34:05.184Z,38.21
2022-11-02T20:36:32.081Z,38.26
2022-11-02T20:38:59.582Z,37.97
2022-11-02T20:41:26.617Z,38.06
2022-11-02T20:43:55.505Z,38.01
2022-11-02T20:46:37.528Z,37.85
2022-11-02T20:49:21.594Z,38.07
2022-11-02T20:51:52.980Z,38.96
2022-11-02T20:54:20.644Z,41.60
2022-11-02T20:56:51.476Z,42.89
2022-11-02T20:59:18.646Z,43.43
2022-11-02T21:01:45.396Z,43.86
2022-11-02T21:04:18.609Z,43.84
2022-11-02T21:06:48.080Z,44.14
2022-11-02T21:09:14.973Z,43.88
2022-11-02T21:12:00.125Z,43.92
2022-11-02T21:14:26.822Z,44.01
2022-11-02T21:16:53.771Z,44.13
2022-11-02T21:19:20.513Z,44.15
2022-11-02T21:21:47.323Z,44.16
2022-11-02T21:24:14.010Z,44.08
2022-11-02T21:26:40.634Z,44.20
2022-11-02T21:29:07.263Z,44.45
2022-11-02T21:31:33.978Z,45.29
2022-11-02T21:34:00.590Z,45.88
2022-11-02T21:36:27.114Z,46.33
2022-11-02T21:38:54.342Z,46.45
2022-11-02T21:41:26.471Z,46.77
2022-11-02T21:43:55.502Z,46.54
2022-11-02T21:46:22.509Z,46.28
2022-11-02T21:48:49.054Z,46.20
2022-11-02T21:51:18.584Z,46.18
2022-11-02T21:53:47.006Z,46.00
2022-11-02T21:56:16.742Z,45.82
2022-11-02T21:58:46.171Z,45.85
2022-11-02T22:01:41.237Z,45.71
2022-11-02T22:04:08.330Z,45.45
2022-11-02T22:06:37.475Z,45.47
2022-11-02T22:11:31.987Z,45.36
2022-11-02T22:14:00.094Z,45.39
2022-11-02T22:16:43.640Z,45.38
2022-11-02T22:19:12.440Z,45.12
2022-11-02T22:21:44.212Z,45.35
2022-11-02T22:24:11.372Z,45.29
2022-11-02T22:26:38.937Z,45.18
2022-11-02T22:29:06.107Z,45.18
2022-11-02T22:31:38.803Z,45.03
2022-11-02T22:34:07.987Z,45.12
2022-11-02T22:36:35.947Z,45.26
2022-11-02T22:39:05.975Z,44.92
2022-11-02T22:41:35.170Z,45.10
2022-11-02T22:44:16.610Z,45.25
2022-11-02T22:46:48.611Z,45.15
2022-11-02T22:49:17.471Z,45.11
2022-11-02T22:51:46.462Z,44.95
2022-11-02T22:54:15.858Z,45.19
2022-11-02T22:56:43.582Z,45.07
2022-11-02T22:59:10.474Z,45.05
2022-11-02T23:01:38.075Z,45.01
2022-11-02T23:04:06.127Z,45.22
2022-11-02T23:06:33.146Z,45.03
2022-11-02T23:09:00.039Z,45.10
2022-11-02T23:11:36.861Z,45.18
2022-11-02T23:14:12.010Z,44.99
2022-11-02T23:16:40.790Z,45.12
2022-11-02T23:19:26.497Z,45.13
2022-11-02T23:22:12.604Z,45.32
2022-11-02T23:25:04.530Z,45.12
2022-11-02T23:27:32.887Z,45.40
2022-11-02T23:30:18.339Z,45.23
2022-11-02T23:32:44.972Z,45.31
2022-11-02T23:35:29.943Z,45.19
2022-11-02T23:38:05.152Z,45.45
2022-11-02T23:40:32.529Z,45.38
2022-11-02T23:42:59.106Z,45.33
2022-11-02T23:45:25.654Z,45.25
2022-11-02T23:48:00.094Z,45.44
2022-11-02T23:50:50.790Z,45.33
2022-11-02T23:53:38.595Z,45.28
2022-11-02T23:58:32.444Z,45.09
